sensor_id;sensor_type;location;lat;lon;timestamp;pressure;altitude;pressure_sealevel;temperature;humidity
18813;BME280;9534;51.140;6.296;2024-01-25T00:01:59;67696.47;;;8.85;100.00
18813;BME280;9534;51.140;6.296;2024-01-25T00:06:03;67691.34;;;8.80;100.00
18813;BME280;9534;51.140;6.296;2024-01-25T00:10:08;67679.66;;;8.75;100.00
18813;BME280;9534;51.140;6.296;2024-01-25T00:14:11;67678.38;;;8.71;100.00
18813;BME280;9534;51.140;6.296;2024-01-25T00:18:14;67683.78;;;8.71;100.00
18813;BME280;9534;51.140;6.296;2024-01-25T00:22:18;67671.97;;;8.63;100.00
18813;BME280;9534;51.140;6.296;2024-01-25T00:26:22;67678.50;;;8.64;100.00
18813;BME280;9534;51.140;6.296;2024-01-25T00:30:25;67672.69;;;8.66;100.00
18813;BME280;9534;51.140;6.296;2024-01-25T00:34:28;67681.06;;;8.71;100.00
18813;BME280;9534;51.140;6.296;2024-01-25T00:38:32;67681.22;;;8.74;100.00
18813;BME280;9534;51.140;6.296;2024-01-25T00:42:39;67683.34;;;8.73;100.00
18813;BME280;9534;51.140;6.296;2024-01-25T00:46:43;67683.34;;;8.73;100.00
18813;BME280;9534;51.140;6.296;2024-01-25T00:50:49;67688.34;;;8.75;100.00
18813;BME280;9534;51.140;6.296;2024-01-25T00:54:52;67678.94;;;8.72;100.00
18813;BME280;9534;51.140;6.296;2024-01-25T00:58:57;67682.22;;;8.72;100.00
18813;BME280;9534;51.140;6.296;2024-01-25T01:03:00;67677.22;;;8.70;100.00
18813;BME280;9534;51.140;6.296;2024-01-25T01:07:06;67670.69;;;8.60;100.00
18813;BME280;9534;51.140;6.296;2024-01-25T01:11:09;67662.56;;;8.60;100.00
18813;BME280;9534;51.140;6.296;2024-01-25T01:15:14;67654.88;;;8.49;100.00
18813;BME280;9534;51.140;6.296;2024-01-25T01:19:17;67646.91;;;8.42;100.00
18813;BME280;9534;51.140;6.296;2024-01-25T01:23:20;67638.94;;;8.35;100.00
18813;BME280;9534;51.140;6.296;2024-01-25T01:27:23;67627.38;;;8.22;100.00
18813;BME280;9534;51.140;6.296;2024-01-25T01:31:28;67617.41;;;8.18;100.00
18813;BME280;9534;51.140;6.296;2024-01-25T01:35:31;67603.19;;;8.06;100.00
18813;BME280;9534;51.140;6.296;2024-01-25T01:39:34;67599.47;;;7.98;100.00
18813;BME280;9534;51.140;6.296;2024-01-25T01:43:37;67585.25;;;7.95;100.00
18813;BME280;9534;51.140;6.296;2024-01-25T01:47:42;67587.66;;;7.90;100.00
18813;BME280;9534;51.140;6.296;2024-01-25T01:51:45;67574.00;;;7.78;100.00
18813;BME280;9534;51.140;6.296;2024-01-25T01:55:48;67565.31;;;7.68;100.00
18813;BME280;9534;51.140;6.296;2024-01-25T01:59:51;67556.94;;;7.63;100.00
18813;BME280;9534;51.140;6.296;2024-01-25T02:03:56;67547.97;;;7.57;100.00
18813;BME280;9534;51.140;6.296;2024-01-25T02:07:59;67560.34;;;7.66;100.00
18813;BME280;9534;51.140;6.296;2024-01-25T02:12:03;67553.94;;;7.58;100.00
18813;BME280;9534;51.140;6.296;2024-01-25T02:16:07;67546.53;;;7.51;100.00
18813;BME280;9534;51.140;6.296;2024-01-25T02:20:13;67538.31;;;7.49;100.00
18813;BME280;9534;51.140;6.296;2024-01-25T02:24:18;67539.28;;;7.47;100.00
18813;BME280;9534;51.140;6.296;2024-01-25T02:28:22;67534.88;;;7.46;100.00
18813;BME280;9534;51.140;6.296;2024-01-25T02:32:26;67530.91;;;7.42;100.00
18813;BME280;9534;51.140;6.296;2024-01-25T02:36:29;67532.44;;;7.41;100.00
18813;BME280;9534;51.140;6.296;2024-01-25T02:40:33;67518.22;;;7.29;100.00
18813;BME280;9534;51.140;6.296;2024-01-25T02:44:36;67515.25;;;7.24;100.00
18813;BME280;9534;51.140;6.296;2024-01-25T02:48:39;67517.53;;;7.26;100.00
18813;BME280;9534;51.140;6.296;2024-01-25T02:52:43;67515.66;;;7.22;100.00
18813;BME280;9534;51.140;6.296;2024-01-25T02:56:47;67504.75;;;7.20;100.00
18813;BME280;9534;51.140;6.296;2024-01-25T03:00:51;67489.94;;;7.07;100.00
18813;BME280;9534;51.140;6.296;2024-01-25T03:04:54;67492.47;;;7.04;100.00
18813;BME280;9534;51.140;6.296;2024-01-25T03:08:57;67484.53;;;6.97;100.00
18813;BME280;9534;51.140;6.296;2024-01-25T03:13:01;67476.13;;;6.92;100.00
18813;BME280;9534;51.140;6.296;2024-01-25T03:17:04;67466.91;;;6.82;100.00
18813;BME280;9534;51.140;6.296;2024-01-25T03:21:07;67459.50;;;6.75;100.00
18813;BME280;9534;51.140;6.296;2024-01-25T03:25:10;67447.00;;;6.64;100.00
18813;BME280;9534;51.140;6.296;2024-01-25T03:29:15;67440.72;;;6.59;100.00
18813;BME280;9534;51.140;6.296;2024-01-25T03:33:18;67439.34;;;6.62;100.00
18813;BME280;9534;51.140;6.296;2024-01-25T03:37:21;67436.50;;;6.60;100.00
18813;BME280;9534;51.140;6.296;2024-01-25T03:41:24;67435.63;;;6.54;100.00
18813;BME280;9534;51.140;6.296;2024-01-25T03:45:29;67433.50;;;6.55;100.00
18813;BME280;9534;51.140;6.296;2024-01-25T03:49:34;67444.16;;;6.62;100.00
18813;BME280;9534;51.140;6.296;2024-01-25T03:53:37;67436.19;;;6.55;100.00
18813;BME280;9534;51.140;6.296;2024-01-25T03:57:41;67436.91;;;6.58;100.00
18813;BME280;9534;51.140;6.296;2024-01-25T04:01:46;67436.47;;;6.50;100.00
18813;BME280;9534;51.140;6.296;2024-01-25T04:05:50;67420.44;;;6.43;100.00
18813;BME280;9534;51.140;6.296;2024-01-25T04:09:53;67412.06;;;6.38;100.00
18813;BME280;9534;51.140;6.296;2024-01-25T04:13:56;67410.78;;;6.35;100.00
18813;BME280;9534;51.140;6.296;2024-01-25T04:18:01;67414.03;;;6.35;100.00
18813;BME280;9534;51.140;6.296;2024-01-25T04:22:04;67400.69;;;6.28;100.00
18813;BME280;9534;51.140;6.296;2024-01-25T04:26:07;67396.72;;;6.25;100.00
18813;BME280;9534;51.140;6.296;2024-01-25T04:30:10;67397.28;;;6.25;100.00
18813;BME280;9534;51.140;6.296;2024-01-25T04:34:14;67394.13;;;6.18;100.00
18813;BME280;9534;51.140;6.296;2024-01-25T04:38:18;67390.16;;;6.14;100.00
18813;BME280;9534;51.140;6.296;2024-01-25T04:42:21;67375.66;;;6.07;100.00
18813;BME280;9534;51.140;6.296;2024-01-25T04:46:24;67358.16;;;5.84;100.00
18813;BME280;9534;51.140;6.296;2024-01-25T04:50:29;67356.38;;;5.90;100.00
18813;BME280;9534;51.140;6.296;2024-01-25T04:54:33;67356.38;;;5.90;100.00
18813;BME280;9534;51.140;6.296;2024-01-25T04:58:36;67349.53;;;5.84;100.00
18813;BME280;9534;51.140;6.296;2024-01-25T05:02:39;67360.03;;;5.88;100.00
18813;BME280;9534;51.140;6.296;2024-01-25T05:06:43;67349.06;;;5.76;100.00
18813;BME280;9534;51.140;6.296;2024-01-25T05:10:46;67326.50;;;5.59;100.00
18813;BME280;9534;51.140;6.296;2024-01-25T05:14:49;67325.78;;;5.56;100.00
18813;BME280;9534;51.140;6.296;2024-01-25T05:18:53;67318.56;;;5.52;100.00
18813;BME280;9534;51.140;6.296;2024-01-25T05:22:57;67310.75;;;5.47;100.00
18813;BME280;9534;51.140;6.296;2024-01-25T05:27:01;67303.78;;;5.39;100.00
18813;BME280;9534;51.140;6.296;2024-01-25T05:31:04;67292.72;;;5.34;100.00
18813;BME280;9534;51.140;6.296;2024-01-25T05:35:11;67283.78;;;5.19;100.00
18813;BME280;9534;51.140;6.296;2024-01-25T05:39:16;67292.28;;;5.26;100.00
18813;BME280;9534;51.140;6.296;2024-01-25T05:43:20;67284.34;;;5.19;100.00
18813;BME280;9534;51.140;6.296;2024-01-25T05:47:23;67286.19;;;5.23;100.00
18813;BME280;9534;51.140;6.296;2024-01-25T05:51:27;67267.78;;;5.12;100.00
18813;BME280;9534;51.140;6.296;2024-01-25T05:55:31;67269.31;;;5.11;100.00
18813;BME280;9534;51.140;6.296;2024-01-25T05:59:34;67274.84;;;5.13;100.00
18813;BME280;9534;51.140;6.296;2024-01-25T06:03:37;67268.03;;;5.07;100.00
18813;BME280;9534;51.140;6.296;2024-01-25T06:07:40;67272.56;;;5.11;100.00
18813;BME280;9534;51.140;6.296;2024-01-25T06:11:45;67270.88;;;5.10;100.00
18813;BME280;9534;51.140;6.296;2024-01-25T06:15:49;67278.66;;;5.14;100.00
18813;BME280;9534;51.140;6.296;2024-01-25T06:19:52;67269.44;;;5.04;100.00
18813;BME280;9534;51.140;6.296;2024-01-25T06:23:55;67257.81;;;4.98;100.00
18813;BME280;9534;51.140;6.296;2024-01-25T06:28:00;67260.91;;;4.96;100.00
18813;BME280;9534;51.140;6.296;2024-01-25T06:32:04;67259.53;;;5.00;100.00
18813;BME280;9534;51.140;6.296;2024-01-25T06:36:14;67259.53;;;5.00;100.00
18813;BME280;9534;51.140;6.296;2024-01-25T06:40:17;67267.47;;;5.07;100.00
18813;BME280;9534;51.140;6.296;2024-01-25T06:44:22;67269.75;;;5.09;100.00
18813;BME280;9534;51.140;6.296;2024-01-25T06:48:25;67272.88;;;5.16;100.00
18813;BME280;9534;51.140;6.296;2024-01-25T06:52:28;67296.81;;;5.30;100.00
18813;BME280;9534;51.140;6.296;2024-01-25T06:56:31;67286.91;;;5.26;100.00
18813;BME280;9534;51.140;6.296;2024-01-25T07:00:37;67290.56;;;5.25;100.00
18813;BME280;9534;51.140;6.296;2024-01-25T07:04:41;67281.09;;;5.19;100.00
18813;BME280;9534;51.140;6.296;2024-01-25T07:08:45;67268.59;;;5.08;100.00
18813;BME280;9534;51.140;6.296;2024-01-25T07:12:48;67275.25;;;5.11;100.00
18813;BME280;9534;51.140;6.296;2024-01-25T07:16:53;67278.25;;;5.16;100.00
18813;BME280;9534;51.140;6.296;2024-01-25T07:20:56;67267.72;;;5.02;100.00
18813;BME280;9534;51.140;6.296;2024-01-25T07:24:59;67268.34;;;5.12;100.00
18813;BME280;9534;51.140;6.296;2024-01-25T07:29:02;67270.88;;;5.10;100.00
18813;BME280;9534;51.140;6.296;2024-01-25T07:33:07;67260.66;;;5.01;100.00
18813;BME280;9534;51.140;6.296;2024-01-25T07:37:10;67265.44;;;5.00;100.00
18813;BME280;9534;51.140;6.296;2024-01-25T07:41:13;67261.06;;;4.99;100.00
18813;BME280;9534;51.140;6.296;2024-01-25T07:45:17;67252.72;;;4.94;100.00
18813;BME280;9534;51.140;6.296;2024-01-25T07:49:22;67261.38;;;5.04;100.00
18813;BME280;9534;51.140;6.296;2024-01-25T07:53:25;67265.19;;;5.05;100.00
18813;BME280;9534;51.140;6.296;2024-01-25T07:57:28;67280.25;;;5.23;100.00
18813;BME280;9534;51.140;6.296;2024-01-25T08:01:31;67298.53;;;5.32;100.00
18813;BME280;9534;51.140;6.296;2024-01-25T08:05:36;67306.38;;;5.46;100.00
18813;BME280;9534;51.140;6.296;2024-01-25T08:09:48;67315.72;;;5.49;100.00
18813;BME280;9534;51.140;6.296;2024-01-25T08:13:54;67318.56;;;5.52;100.00
18813;BME280;9534;51.140;6.296;2024-01-25T08:18:04;67330.50;;;5.62;100.00
18813;BME280;9534;51.140;6.296;2024-01-25T08:22:13;67338.72;;;5.74;100.00
18813;BME280;9534;51.140;6.296;2024-01-25T08:26:16;67329.94;;;5.71;100.00
18813;BME280;9534;51.140;6.296;2024-01-25T08:30:19;67352.78;;;5.84;100.00
18813;BME280;9534;51.140;6.296;2024-01-25T08:34:23;67367.75;;;6.00;100.00
18813;BME280;9534;51.140;6.296;2024-01-25T08:38:28;67379.91;;;6.06;100.00
18813;BME280;9534;51.140;6.296;2024-01-25T08:42:31;67382.50;;;6.13;100.00
18813;BME280;9534;51.140;6.296;2024-01-25T08:46:53;67396.41;;;6.20;100.00
18813;BME280;9534;51.140;6.296;2024-01-25T08:50:56;67400.97;;;6.24;100.00
18813;BME280;9534;51.140;6.296;2024-01-25T08:55:01;67399.25;;;6.22;100.00
18813;BME280;9534;51.140;6.296;2024-01-25T08:59:04;67406.06;;;6.28;100.00
18813;BME280;9534;51.140;6.296;2024-01-25T09:03:07;67412.88;;;6.34;100.00
18813;BME280;9534;51.140;6.296;2024-01-25T09:07:10;67411.75;;;6.33;100.00
18813;BME280;9534;51.140;6.296;2024-01-25T09:11:15;67431.06;;;6.50;100.00
18813;BME280;9534;51.140;6.296;2024-01-25T09:15:18;67435.22;;;6.56;100.00
18813;BME280;9534;51.140;6.296;2024-01-25T09:19:21;67459.50;;;6.75;100.00
18813;BME280;9534;51.140;6.296;2024-01-25T09:23:24;67441.63;;;6.64;100.00
18813;BME280;9534;51.140;6.296;2024-01-25T09:27:29;67456.25;;;6.75;100.00
18813;BME280;9534;51.140;6.296;2024-01-25T09:31:33;67454.84;;;6.78;100.00
18813;BME280;9534;51.140;6.296;2024-01-25T09:35:36;67468.63;;;6.83;100.00
18813;BME280;9534;51.140;6.296;2024-01-25T09:39:40;67489.50;;;6.99;100.00
18813;BME280;9534;51.140;6.296;2024-01-25T09:43:45;67496.78;;;7.13;100.00
18813;BME280;9534;51.140;6.296;2024-01-25T09:47:49;67499.59;;;7.15;100.00
18813;BME280;9534;51.140;6.296;2024-01-25T09:51:52;67527.47;;;7.39;100.00
18813;BME280;9534;51.140;6.296;2024-01-25T09:55:57;67546.69;;;7.54;100.00
18813;BME280;9534;51.140;6.296;2024-01-25T10:00:06;67582.38;;;7.83;100.00
18813;BME280;9534;51.140;6.296;2024-01-25T10:04:14;67589.50;;;7.94;100.00
18813;BME280;9534;51.140;6.296;2024-01-25T10:08:17;67604.19;;;8.04;100.00
18813;BME280;9534;51.140;6.296;2024-01-25T10:12:25;67585.81;;;7.86;100.00
18813;BME280;9534;51.140;6.296;2024-01-25T10:16:29;67601.75;;;8.00;100.00
18813;BME280;9534;51.140;6.296;2024-01-25T10:20:33;67595.06;;;7.96;100.00
18813;BME280;9534;51.140;6.296;2024-01-25T10:24:38;67608.88;;;8.11;100.00
18813;BME280;9534;51.140;6.296;2024-01-25T10:28:41;67584.97;;;7.90;100.00
18813;BME280;9534;51.140;6.296;2024-01-25T10:32:46;67549.09;;;7.58;100.00
18813;BME280;9534;51.140;6.296;2024-01-25T10:36:49;67545.97;;;7.51;100.00
18813;BME280;9534;51.140;6.296;2024-01-25T10:40:54;67555.94;;;7.64;100.00
18813;BME280;9534;51.140;6.296;2024-01-25T10:44:58;67549.94;;;7.54;100.00
18813;BME280;9534;51.140;6.296;2024-01-25T10:49:03;67556.22;;;7.60;100.00
18813;BME280;9534;51.140;6.296;2024-01-25T10:53:06;67545.97;;;7.51;100.00
18813;BME280;9534;51.140;6.296;2024-01-25T10:57:10;67557.66;;;7.66;100.00
18813;BME280;9534;51.140;6.296;2024-01-25T11:01:13;67579.25;;;7.85;100.00
18813;BME280;9534;51.140;6.296;2024-01-25T11:05:19;67605.75;;;8.13;100.00
18813;BME280;9534;51.140;6.296;2024-01-25T11:09:23;67622.97;;;8.21;100.00
18813;BME280;9534;51.140;6.296;2024-01-25T11:13:27;67648.06;;;8.52;100.00
18813;BME280;9534;51.140;6.296;2024-01-25T11:17:31;67670.69;;;8.60;100.00
18813;BME280;9534;51.140;6.296;2024-01-25T11:21:42;67695.88;;;8.84;100.00
18813;BME280;9534;51.140;6.296;2024-01-25T11:25:46;67670.97;;;8.65;100.00
18813;BME280;9534;51.140;6.296;2024-01-25T11:29:50;67696.59;;;8.87;100.00
18813;BME280;9534;51.140;6.296;2024-01-25T11:33:53;67680.50;;;8.71;100.00
18813;BME280;9534;51.140;6.296;2024-01-25T11:38:00;67693.34;;;8.87;100.00
18813;BME280;9534;51.140;6.296;2024-01-25T11:42:04;67756.75;;;9.35;100.00
18813;BME280;9534;51.140;6.296;2024-01-25T11:46:07;67786.53;;;9.64;100.00
18813;BME280;9534;51.140;6.296;2024-01-25T11:50:11;67805.63;;;9.85;100.00
18813;BME280;9534;51.140;6.296;2024-01-25T11:54:16;67868.41;;;10.40;100.00
18813;BME280;9534;51.140;6.296;2024-01-25T11:58:19;67815.31;;;9.93;100.00
18813;BME280;9534;51.140;6.296;2024-01-25T12:02:22;67852.88;;;10.24;100.00
18813;BME280;9534;51.140;6.296;2024-01-25T12:06:26;67865.41;;;10.35;100.00
18813;BME280;9534;51.140;6.296;2024-01-25T12:10:31;67867.97;;;10.42;100.00
18813;BME280;9534;51.140;6.296;2024-01-25T12:14:34;67891.66;;;10.58;100.00
18813;BME280;9534;51.140;6.296;2024-01-25T12:18:37;67888.81;;;10.55;100.00
18813;BME280;9534;51.140;6.296;2024-01-25T12:22:41;67908.22;;;10.72;100.00
18813;BME280;9534;51.140;6.296;2024-01-25T12:26:47;67913.66;;;10.72;100.00
18813;BME280;9534;51.140;6.296;2024-01-25T12:30:50;67906.94;;;10.69;100.00
18813;BME280;9534;51.140;6.296;2024-01-25T12:34:54;67853.31;;;10.22;100.00
18813;BME280;9534;51.140;6.296;2024-01-25T12:38:57;67855.00;;;10.23;100.00
18813;BME280;9534;51.140;6.296;2024-01-25T12:43:05;67859.72;;;10.30;100.00
18813;BME280;9534;51.140;6.296;2024-01-25T12:47:08;67906.50;;;10.71;100.00
18813;BME280;9534;51.140;6.296;2024-01-25T12:51:11;67894.81;;;10.56;100.00
18813;BME280;9534;51.140;6.296;2024-01-25T12:55:15;67849.88;;;10.19;100.00
18813;BME280;9534;51.140;6.296;2024-01-25T12:59:19;67863.28;;;10.26;100.00
18813;BME280;9534;51.140;6.296;2024-01-25T13:03:23;67845.75;;;10.13;100.00
18813;BME280;9534;51.140;6.296;2024-01-25T13:07:26;67876.69;;;10.42;100.00
18813;BME280;9534;51.140;6.296;2024-01-25T13:11:29;67829.59;;;10.06;100.00
18813;BME280;9534;51.140;6.296;2024-01-25T13:15:34;67827.88;;;10.04;100.00
18813;BME280;9534;51.140;6.296;2024-01-25T13:19:37;67833.88;;;10.05;100.00
18813;BME280;9534;51.140;6.296;2024-01-25T13:23:40;67867.56;;;10.34;100.00
18813;BME280;9534;51.140;6.296;2024-01-25T13:27:43;67872.25;;;10.41;100.00
18813;BME280;9534;51.140;6.296;2024-01-25T13:31:47;67864.84;;;10.34;100.00
18813;BME280;9534;51.140;6.296;2024-01-25T13:35:51;67832.03;;;10.01;100.00
18813;BME280;9534;51.140;6.296;2024-01-25T13:39:54;67838.03;;;10.11;100.00
18813;BME280;9534;51.140;6.296;2024-01-25T13:43:57;67866.00;;;10.35;100.00
18813;BME280;9534;51.140;6.296;2024-01-25T13:48:01;67867.69;;;10.37;100.00
18813;BME280;9534;51.140;6.296;2024-01-25T13:52:05;67843.75;;;10.16;100.00
18813;BME280;9534;51.140;6.296;2024-01-25T13:56:08;67857.44;;;10.28;100.00
18813;BME280;9534;51.140;6.296;2024-01-25T14:00:11;67854.44;;;10.23;100.00
18813;BME280;9534;51.140;6.296;2024-01-25T14:04:16;67850.59;;;10.22;100.00
18813;BME280;9534;51.140;6.296;2024-01-25T14:08:19;67844.31;;;10.16;100.00
18813;BME280;9534;51.140;6.296;2024-01-25T14:12:22;67833.03;;;10.09;100.00
18813;BME280;9534;51.140;6.296;2024-01-25T14:16:26;67842.03;;;10.14;100.00
18813;BME280;9534;51.140;6.296;2024-01-25T14:20:30;67852.88;;;10.24;100.00
18813;BME280;9534;51.140;6.296;2024-01-25T14:24:33;67842.59;;;10.15;100.00
18813;BME280;9534;51.140;6.296;2024-01-25T14:28:36;67846.28;;;10.13;100.00
18813;BME280;9534;51.140;6.296;2024-01-25T14:32:40;67842.88;;;10.10;100.00
18813;BME280;9534;51.140;6.296;2024-01-25T14:36:45;67843.75;;;10.16;100.00
18813;BME280;9534;51.140;6.296;2024-01-25T14:40:48;67849.44;;;10.21;100.00
18813;BME280;9534;51.140;6.296;2024-01-25T14:45:00;67856.28;;;10.27;100.00
18813;BME280;9534;51.140;6.296;2024-01-25T14:49:05;67822.47;;;9.95;100.00
18813;BME280;9534;51.140;6.296;2024-01-25T14:53:09;67810.63;;;9.87;100.00
18813;BME280;9534;51.140;6.296;2024-01-25T14:57:13;67810.63;;;9.87;100.00
18813;BME280;9534;51.140;6.296;2024-01-25T15:01:16;67814.75;;;9.93;100.00
18813;BME280;9534;51.140;6.296;2024-01-25T15:05:20;67816.34;;;9.92;100.00
18813;BME280;9534;51.140;6.296;2024-01-25T15:09:25;67823.19;;;9.98;100.00
18813;BME280;9534;51.140;6.296;2024-01-25T15:13:28;67833.72;;;10.02;100.00
18813;BME280;9534;51.140;6.296;2024-01-25T15:17:31;67838.88;;;10.07;100.00
18813;BME280;9534;51.140;6.296;2024-01-25T15:21:34;67842.31;;;10.10;100.00
18813;BME280;9534;51.140;6.296;2024-01-25T15:25:39;67838.75;;;10.14;100.00
18813;BME280;9534;51.140;6.296;2024-01-25T15:29:44;67839.19;;;10.12;100.00
18813;BME280;9534;51.140;6.296;2024-01-25T15:33:47;67839.59;;;10.10;100.00
18813;BME280;9534;51.140;6.296;2024-01-25T15:37:55;67831.00;;;10.02;100.00
18813;BME280;9534;51.140;6.296;2024-01-25T15:41:59;67812.91;;;9.89;100.00
18813;BME280;9534;51.140;6.296;2024-01-25T15:46:03;67790.81;;;9.72;100.00
18813;BME280;9534;51.140;6.296;2024-01-25T15:50:06;67768.84;;;9.48;100.00
18813;BME280;9534;51.140;6.296;2024-01-25T15:54:09;67746.06;;;9.28;100.00
18813;BME280;9534;51.140;6.296;2024-01-25T15:58:14;67734.50;;;9.16;100.00
18813;BME280;9534;51.140;6.296;2024-01-25T16:02:17;67722.53;;;9.05;100.00
18813;BME280;9534;51.140;6.296;2024-01-25T16:06:21;67709.72;;;8.99;100.00
18813;BME280;9534;51.140;6.296;2024-01-25T16:10:24;67705.59;;;8.93;100.00
18813;BME280;9534;51.140;6.296;2024-01-25T16:14:29;67700.44;;;8.88;100.00
18813;BME280;9534;51.140;6.296;2024-01-25T16:18:32;67693.78;;;8.85;100.00
18813;BME280;9534;51.140;6.296;2024-01-25T16:22:35;67696.31;;;8.82;100.00
18813;BME280;9534;51.140;6.296;2024-01-25T16:26:39;67689.47;;;8.76;100.00
18813;BME280;9534;51.140;6.296;2024-01-25T16:30:43;67682.22;;;8.72;100.00
18813;BME280;9534;51.140;6.296;2024-01-25T16:34:46;67680.94;;;8.69;100.00
18813;BME280;9534;51.140;6.296;2024-01-25T16:38:50;67678.06;;;8.66;100.00
18813;BME280;9534;51.140;6.296;2024-01-25T16:42:53;67675.38;;;8.66;100.00
18813;BME280;9534;51.140;6.296;2024-01-25T16:46:59;67673.81;;;8.67;100.00
18813;BME280;9534;51.140;6.296;2024-01-25T16:51:08;67671.41;;;8.63;100.00
18813;BME280;9534;51.140;6.296;2024-01-25T16:55:12;67667.41;;;8.60;100.00
18813;BME280;9534;51.140;6.296;2024-01-25T16:59:22;67680.34;;;8.68;100.00
18813;BME280;9534;51.140;6.296;2024-01-25T17:03:27;67667.56;;;8.62;100.00
18813;BME280;9534;51.140;6.296;2024-01-25T17:07:31;67669.69;;;8.61;100.00
18813;BME280;9534;51.140;6.296;2024-01-25T17:11:34;67670.81;;;8.62;100.00
18813;BME280;9534;51.140;6.296;2024-01-25T17:15:40;67666.97;;;8.61;100.00
18813;BME280;9534;51.140;6.296;2024-01-25T17:19:46;67665.84;;;8.60;100.00
18813;BME280;9534;51.140;6.296;2024-01-25T17:23:49;67673.53;;;8.62;100.00
18813;BME280;9534;51.140;6.296;2024-01-25T17:27:54;67669.69;;;8.61;100.00
18813;BME280;9534;51.140;6.296;2024-01-25T17:31:58;67669.69;;;8.61;100.00
18813;BME280;9534;51.140;6.296;2024-01-25T17:36:03;67674.22;;;8.65;100.00
18813;BME280;9534;51.140;6.296;2024-01-25T17:40:06;67674.81;;;8.66;100.00
18813;BME280;9534;51.140;6.296;2024-01-25T17:44:11;67666.13;;;8.65;100.00
18813;BME280;9534;51.140;6.296;2024-01-25T17:48:14;67676.69;;;8.70;100.00
18813;BME280;9534;51.140;6.296;2024-01-25T17:52:20;67679.94;;;8.70;100.00
18813;BME280;9534;51.140;6.296;2024-01-25T17:56:23;67686.06;;;8.73;100.00
18813;BME280;9534;51.140;6.296;2024-01-25T18:00:26;67691.75;;;8.78;100.00
18813;BME280;9534;51.140;6.296;2024-01-25T18:04:29;67691.19;;;8.87;100.00
18813;BME280;9534;51.140;6.296;2024-01-25T18:08:34;67698.34;;;8.89;100.00
18813;BME280;9534;51.140;6.296;2024-01-25T18:12:37;67697.31;;;8.90;100.00
18813;BME280;9534;51.140;6.296;2024-01-25T18:16:43;67698.16;;;8.86;100.00
18813;BME280;9534;51.140;6.296;2024-01-25T18:20:47;67701.16;;;8.91;100.00
18813;BME280;9534;51.140;6.296;2024-01-25T18:24:51;67711.84;;;8.98;100.00
18813;BME280;9534;51.140;6.296;2024-01-25T18:28:54;67715.84;;;9.02;100.00
18813;BME280;9534;51.140;6.296;2024-01-25T18:32:57;67718.69;;;9.04;100.00
18813;BME280;9534;51.140;6.296;2024-01-25T18:37:01;67720.53;;;9.08;100.00
18813;BME280;9534;51.140;6.296;2024-01-25T18:41:07;67719.69;;;9.12;100.00
18813;BME280;9534;51.140;6.296;2024-01-25T18:45:13;67722.41;;;9.12;100.00
18813;BME280;9534;51.140;6.296;2024-01-25T18:49:17;67730.81;;;9.17;100.00
18813;BME280;9534;51.140;6.296;2024-01-25T18:53:20;67746.06;;;9.28;100.00
18813;BME280;9534;51.140;6.296;2024-01-25T18:57:25;67742.94;;;9.30;100.00
18813;BME280;9534;51.140;6.296;2024-01-25T19:01:28;67744.50;;;9.29;100.00
18813;BME280;9534;51.140;6.296;2024-01-25T19:05:32;67753.31;;;9.32;100.00
18813;BME280;9534;51.140;6.296;2024-01-25T19:09:35;67749.63;;;9.34;100.00
18813;BME280;9534;51.140;6.296;2024-01-25T19:13:41;67752.47;;;9.36;100.00
18813;BME280;9534;51.140;6.296;2024-01-25T19:17:45;67758.03;;;9.39;100.00
18813;BME280;9534;51.140;6.296;2024-01-25T19:21:49;67761.88;;;9.40;100.00
18813;BME280;9534;51.140;6.296;2024-01-25T19:25:54;67756.31;;;9.37;100.00
18813;BME280;9534;51.140;6.296;2024-01-25T19:30:01;67760.47;;;9.43;100.00
18813;BME280;9534;51.140;6.296;2024-01-25T19:34:04;67768.13;;;9.45;100.00
18813;BME280;9534;51.140;6.296;2024-01-25T19:38:08;67765.41;;;9.45;100.00
18813;BME280;9534;51.140;6.296;2024-01-25T19:42:11;67763.28;;;9.46;100.00
18813;BME280;9534;51.140;6.296;2024-01-25T19:46:16;67759.88;;;9.43;100.00
18813;BME280;9534;51.140;6.296;2024-01-25T19:50:19;67762.03;;;9.42;100.00
18813;BME280;9534;51.140;6.296;2024-01-25T19:54:22;67757.47;;;9.38;100.00
18813;BME280;9534;51.140;6.296;2024-01-25T19:58:26;67751.47;;;9.38;100.00
18813;BME280;9534;51.140;6.296;2024-01-25T20:02:32;67753.63;;;9.37;100.00
18813;BME280;9534;51.140;6.296;2024-01-25T20:06:36;67751.34;;;9.35;100.00
18813;BME280;9534;51.140;6.296;2024-01-25T20:10:40;67741.78;;;9.29;100.00
18813;BME280;9534;51.140;6.296;2024-01-25T20:14:43;67744.50;;;9.29;100.00
18813;BME280;9534;51.140;6.296;2024-01-25T20:18:49;67750.19;;;9.34;100.00
18813;BME280;9534;51.140;6.296;2024-01-25T20:22:53;67765.00;;;9.47;100.00
18813;BME280;9534;51.140;6.296;2024-01-25T20:26:56;67761.59;;;9.44;100.00
18813;BME280;9534;51.140;6.296;2024-01-25T20:30:59;67764.31;;;9.44;100.00
18813;BME280;9534;51.140;6.296;2024-01-25T20:35:04;67773.28;;;9.50;100.00
18813;BME280;9534;51.140;6.296;2024-01-25T20:39:07;67769.56;;;9.51;100.00
18813;BME280;9534;51.140;6.296;2024-01-25T20:43:11;67769.13;;;9.53;100.00
18813;BME280;9534;51.140;6.296;2024-01-25T20:47:14;67775.97;;;9.59;100.00
18813;BME280;9534;51.140;6.296;2024-01-25T20:51:18;67783.25;;;9.63;100.00
18813;BME280;9534;51.140;6.296;2024-01-25T20:55:21;67785.53;;;9.65;100.00
18813;BME280;9534;51.140;6.296;2024-01-25T20:59:24;67787.81;;;9.67;100.00
18813;BME280;9534;51.140;6.296;2024-01-25T21:03:28;67792.78;;;9.69;100.00
18813;BME280;9534;51.140;6.296;2024-01-25T21:07:33;67787.25;;;9.67;100.00
18813;BME280;9534;51.140;6.296;2024-01-25T21:11:36;67779.56;;;9.65;100.00
18813;BME280;9534;51.140;6.296;2024-01-25T21:15:40;67782.25;;;9.65;100.00
18813;BME280;9534;51.140;6.296;2024-01-25T21:19:44;67785.53;;;9.65;100.00
18813;BME280;9534;51.140;6.296;2024-01-25T21:23:48;67787.53;;;9.62;100.00
18813;BME280;9534;51.140;6.296;2024-01-25T21:27:51;67785.53;;;9.65;100.00
18813;BME280;9534;51.140;6.296;2024-01-25T21:31:54;67784.38;;;9.64;100.00
18813;BME280;9534;51.140;6.296;2024-01-25T21:35:57;67792.09;;;9.66;100.00
18813;BME280;9534;51.140;6.296;2024-01-25T21:40:03;67786.66;;;9.66;100.00
18813;BME280;9534;51.140;6.296;2024-01-25T21:44:06;67790.53;;;9.67;100.00
18813;BME280;9534;51.140;6.296;2024-01-25T21:48:11;67791.22;;;9.70;100.00